Detall de PIREP

Printer-friendly versionPDF version

[2010/06/02 07:23:00]
Flight IATA:CT0001
Pilot Number:041
Company ICAO:CAT
Aircraft Type:F28/A
PAX:79
Departing Airport: LEVC
Destination Airport: LEDA
Alternate Airport:LERS
Online: VATSIM
Route:TATOS A34 SAURA CRETA MLA CASPE SEROX R870 VILAR
Flight Level:FL140
No Slew and time accel
No pause
Crash detect
Detect pilot in Cockpit between each 30 and 45 minutes
07:23 Zero fuel Weight: 57507 Lbs, Fuel Weight: 4442 Lbs
07:23 VATSIM:LEVC 020700Z VRB01KT CAVOK 24/17 Q1013 NOSIG
07:23 VATSIM:LEDA 020700Z 26006KT 230V290 9999 FEW080 18/10 Q1014
07:23 VOICE CATALONIAN
07:25 Parking Brakes off
07:32 Take-off
07:32 Take off Weight: 61516 Lbs
07:32 Wind: 209º @ 001 Knots Heading: 296º
07:32 POS N39º 29´ 30´´ W000º 29´ 17´´
07:32 Gear Up: 179 Knots
07:32 Flaps:1 at 179 Knots
07:33 Flaps:0 at 246 Knots
07:43 TOC
07:43 Fuel Weight: 2772 Lb
07:47 Wind:031º@001 Knots Headi
ng: 016º Ground Speed: 359 Knots Altitude 13979 ft
07:47 TOD
07:47 Fuel Weight: 2383 Lb
08:00 Flaps:1 at 205 Knots
08:02 Wind:223º@002 Knots Heading: 015º Ground Speed: 209 Knots Altitude 4094 ft
08:05 Flaps:2 at 189 Knots
08:07 Gear Down: 177 Knots
08:07 Flaps:3 at 176 Knots
08:07 Flaps:4 at 154 Knots
08:08 Flaps:5 at 141 Knots
08:10 TouchDown:Rate -154 ft/min Speed: 104 Knots
08:10 VATSIM:LEDA 020800Z 22005KT 9999 FEW075 19/11 Q1014
08:10 Land
08:10 Wind:246º@002 Knots
08:10 Heading: 314º
08:10 Flight Duration: 00:38
08:10 Landing Weight: 58706 Lbs
08:10 POS N41º 43´ 47´´ E000º 31´ 57´´
08:13 Parking brakes on
08:13 Block to Block Duration: 00:48
08:13 Final Fuel: 1078 Lbls
08:13 Spent Fuel: 3364 Lbls
08:13 Flight Length: 165 NM
08:13 TOD Land Length: 89 NM

Exportar CSV

Powered by Drupal - Modified by Danger4k